sensor_id;sensor_type;location;lat;lon;timestamp;P1;durP1;ratioP1;P2;durP2;ratioP2
20725;SDS011;10524;48.132;8.518;2024-02-14T00:02:09;8.05;;;5.10;;
20725;SDS011;10524;48.132;8.518;2024-02-14T00:04:35;8.02;;;4.75;;
20725;SDS011;10524;48.132;8.518;2024-02-14T00:07:01;8.95;;;4.43;;
20725;SDS011;10524;48.132;8.518;2024-02-14T00:09:27;9.23;;;4.45;;
20725;SDS011;10524;48.132;8.518;2024-02-14T00:11:52;5.80;;;4.22;;
20725;SDS011;10524;48.132;8.518;2024-02-14T00:14:18;8.45;;;4.22;;
20725;SDS011;10524;48.132;8.518;2024-02-14T00:16:47;8.65;;;3.90;;
20725;SDS011;10524;48.132;8.518;2024-02-14T00:19:12;6.88;;;4.18;;
20725;SDS011;10524;48.132;8.518;2024-02-14T00:21:39;8.32;;;4.28;;
20725;SDS011;10524;48.132;8.518;2024-02-14T00:24:05;9.45;;;4.65;;
20725;SDS011;10524;48.132;8.518;2024-02-14T00:26:31;7.78;;;4.28;;
20725;SDS011;10524;48.132;8.518;2024-02-14T00:28:56;8.13;;;4.95;;
20725;SDS011;10524;48.132;8.518;2024-02-14T00:31:22;6.85;;;4.50;;
20725;SDS011;10524;48.132;8.518;2024-02-14T00:33:48;8.73;;;4.68;;
20725;SDS011;10524;48.132;8.518;2024-02-14T00:36:14;7.15;;;4.00;;
20725;SDS011;10524;48.132;8.518;2024-02-14T00:38:40;7.15;;;3.88;;
20725;SDS011;10524;48.132;8.518;2024-02-14T00:41:05;6.50;;;3.47;;
20725;SDS011;10524;48.132;8.518;2024-02-14T00:43:31;10.05;;;4.47;;
20725;SDS011;10524;48.132;8.518;2024-02-14T00:45:57;9.57;;;4.18;;
20725;SDS011;10524;48.132;8.518;2024-02-14T00:48:23;8.77;;;4.30;;
20725;SDS011;10524;48.132;8.518;2024-02-14T00:50:49;8.55;;;4.32;;
20725;SDS011;10524;48.132;8.518;2024-02-14T00:53:14;7.30;;;3.67;;
20725;SDS011;10524;48.132;8.518;2024-02-14T00:55:40;10.07;;;4.00;;
20725;SDS011;10524;48.132;8.518;2024-02-14T00:58:06;8.70;;;3.60;;
20725;SDS011;10524;48.132;8.518;2024-02-14T01:00:32;6.55;;;4.00;;
20725;SDS011;10524;48.132;8.518;2024-02-14T01:02:58;6.63;;;4.20;;
20725;SDS011;10524;48.132;8.518;2024-02-14T01:05:24;8.35;;;4.10;;
20725;SDS011;10524;48.132;8.518;2024-02-14T01:07:50;8.70;;;4.43;;
20725;SDS011;10524;48.132;8.518;2024-02-14T01:10:16;8.80;;;4.30;;
20725;SDS011;10524;48.132;8.518;2024-02-14T01:12:43;10.77;;;4.30;;
20725;SDS011;10524;48.132;8.518;2024-02-14T01:15:09;6.75;;;3.97;;
20725;SDS011;10524;48.132;8.518;2024-02-14T01:17:35;7.72;;;4.38;;
20725;SDS011;10524;48.132;8.518;2024-02-14T01:20:02;6.55;;;3.85;;
20725;SDS011;10524;48.132;8.518;2024-02-14T01:22:28;7.68;;;3.90;;
20725;SDS011;10524;48.132;8.518;2024-02-14T01:24:54;5.88;;;3.53;;
20725;SDS011;10524;48.132;8.518;2024-02-14T01:27:20;8.27;;;4.20;;
20725;SDS011;10524;48.132;8.518;2024-02-14T01:29:48;8.70;;;3.80;;
20725;SDS011;10524;48.132;8.518;2024-02-14T01:32:14;7.50;;;3.88;;
20725;SDS011;10524;48.132;8.518;2024-02-14T01:34:39;6.45;;;3.60;;
20725;SDS011;10524;48.132;8.518;2024-02-14T01:37:07;8.18;;;3.70;;
20725;SDS011;10524;48.132;8.518;2024-02-14T01:39:35;6.07;;;3.42;;
20725;SDS011;10524;48.132;8.518;2024-02-14T01:42:01;7.63;;;3.67;;
20725;SDS011;10524;48.132;8.518;2024-02-14T01:44:31;8.50;;;4.43;;
20725;SDS011;10524;48.132;8.518;2024-02-14T01:46:57;8.75;;;3.50;;
20725;SDS011;10524;48.132;8.518;2024-02-14T01:49:24;5.38;;;3.28;;
20725;SDS011;10524;48.132;8.518;2024-02-14T01:51:53;9.45;;;3.25;;
20725;SDS011;10524;48.132;8.518;2024-02-14T01:54:22;8.57;;;3.00;;
20725;SDS011;10524;48.132;8.518;2024-02-14T01:56:50;8.55;;;3.47;;
20725;SDS011;10524;48.132;8.518;2024-02-14T01:59:16;7.63;;;3.08;;
20725;SDS011;10524;48.132;8.518;2024-02-14T02:01:43;5.72;;;3.30;;
20725;SDS011;10524;48.132;8.518;2024-02-14T02:04:09;8.32;;;3.55;;
20725;SDS011;10524;48.132;8.518;2024-02-14T02:06:35;7.43;;;3.47;;
20725;SDS011;10524;48.132;8.518;2024-02-14T02:09:02;5.03;;;2.72;;
20725;SDS011;10524;48.132;8.518;2024-02-14T02:11:28;9.55;;;3.40;;
20725;SDS011;10524;48.132;8.518;2024-02-14T02:13:54;5.55;;;3.70;;
20725;SDS011;10524;48.132;8.518;2024-02-14T02:16:20;8.57;;;4.28;;
20725;SDS011;10524;48.132;8.518;2024-02-14T02:18:47;8.75;;;3.50;;
20725;SDS011;10524;48.132;8.518;2024-02-14T02:21:14;6.13;;;3.38;;
20725;SDS011;10524;48.132;8.518;2024-02-14T02:23:40;6.57;;;3.30;;
20725;SDS011;10524;48.132;8.518;2024-02-14T02:26:09;4.93;;;3.15;;
20725;SDS011;10524;48.132;8.518;2024-02-14T02:28:36;8.73;;;3.50;;
20725;SDS011;10524;48.132;8.518;2024-02-14T02:31:02;7.22;;;3.30;;
20725;SDS011;10524;48.132;8.518;2024-02-14T02:33:27;10.23;;;3.67;;
20725;SDS011;10524;48.132;8.518;2024-02-14T02:35:53;7.22;;;3.35;;
20725;SDS011;10524;48.132;8.518;2024-02-14T02:38:19;5.38;;;3.20;;
20725;SDS011;10524;48.132;8.518;2024-02-14T02:40:47;8.85;;;3.97;;
20725;SDS011;10524;48.132;8.518;2024-02-14T02:43:12;8.32;;;3.42;;
20725;SDS011;10524;48.132;8.518;2024-02-14T02:45:38;8.50;;;3.90;;
20725;SDS011;10524;48.132;8.518;2024-02-14T02:48:04;8.32;;;4.50;;
20725;SDS011;10524;48.132;8.518;2024-02-14T02:50:30;8.07;;;4.30;;
20725;SDS011;10524;48.132;8.518;2024-02-14T02:52:56;9.13;;;4.63;;
20725;SDS011;10524;48.132;8.518;2024-02-14T02:55:22;8.55;;;4.72;;
20725;SDS011;10524;48.132;8.518;2024-02-14T02:57:48;8.73;;;4.75;;
20725;SDS011;10524;48.132;8.518;2024-02-14T03:00:14;8.35;;;4.43;;
20725;SDS011;10524;48.132;8.518;2024-02-14T03:02:41;8.32;;;4.68;;
20725;SDS011;10524;48.132;8.518;2024-02-14T03:05:10;9.98;;;4.40;;
20725;SDS011;10524;48.132;8.518;2024-02-14T03:07:43;11.00;;;4.40;;
20725;SDS011;10524;48.132;8.518;2024-02-14T03:10:10;10.68;;;4.70;;
20725;SDS011;10524;48.132;8.518;2024-02-14T03:12:39;8.63;;;4.85;;
20725;SDS011;10524;48.132;8.518;2024-02-14T03:15:04;11.15;;;5.00;;
20725;SDS011;10524;48.132;8.518;2024-02-14T03:17:31;8.70;;;4.35;;
20725;SDS011;10524;48.132;8.518;2024-02-14T03:19:57;10.25;;;4.60;;
20725;SDS011;10524;48.132;8.518;2024-02-14T03:22:22;8.27;;;4.25;;
20725;SDS011;10524;48.132;8.518;2024-02-14T03:24:48;10.48;;;4.45;;
20725;SDS011;10524;48.132;8.518;2024-02-14T03:27:14;8.77;;;4.18;;
20725;SDS011;10524;48.132;8.518;2024-02-14T03:29:42;7.43;;;4.28;;
20725;SDS011;10524;48.132;8.518;2024-02-14T03:32:09;8.05;;;4.30;;
20725;SDS011;10524;48.132;8.518;2024-02-14T03:34:34;5.50;;;3.95;;
20725;SDS011;10524;48.132;8.518;2024-02-14T03:37:03;9.32;;;4.00;;
20725;SDS011;10524;48.132;8.518;2024-02-14T03:39:32;7.00;;;3.90;;
20725;SDS011;10524;48.132;8.518;2024-02-14T03:41:58;7.47;;;4.05;;
20725;SDS011;10524;48.132;8.518;2024-02-14T03:44:27;7.03;;;3.45;;
20725;SDS011;10524;48.132;8.518;2024-02-14T03:46:53;6.68;;;3.60;;
20725;SDS011;10524;48.132;8.518;2024-02-14T03:49:19;6.68;;;3.40;;
20725;SDS011;10524;48.132;8.518;2024-02-14T03:51:45;7.95;;;3.25;;
20725;SDS011;10524;48.132;8.518;2024-02-14T03:54:11;5.88;;;3.08;;
20725;SDS011;10524;48.132;8.518;2024-02-14T03:56:37;8.35;;;3.25;;
20725;SDS011;10524;48.132;8.518;2024-02-14T03:59:03;5.43;;;3.10;;
20725;SDS011;10524;48.132;8.518;2024-02-14T04:01:31;6.90;;;3.10;;
20725;SDS011;10524;48.132;8.518;2024-02-14T04:03:56;5.07;;;3.17;;
20725;SDS011;10524;48.132;8.518;2024-02-14T04:06:22;5.03;;;2.80;;
20725;SDS011;10524;48.132;8.518;2024-02-14T04:08:49;8.68;;;3.38;;
20725;SDS011;10524;48.132;8.518;2024-02-14T04:11:15;7.38;;;3.72;;
20725;SDS011;10524;48.132;8.518;2024-02-14T04:13:41;5.53;;;3.70;;
20725;SDS011;10524;48.132;8.518;2024-02-14T04:16:06;6.28;;;3.65;;
20725;SDS011;10524;48.132;8.518;2024-02-14T04:18:32;6.63;;;4.00;;
20725;SDS011;10524;48.132;8.518;2024-02-14T04:20:58;6.47;;;3.85;;
20725;SDS011;10524;48.132;8.518;2024-02-14T04:23:24;7.55;;;3.97;;
20725;SDS011;10524;48.132;8.518;2024-02-14T04:25:50;6.75;;;4.07;;
20725;SDS011;10524;48.132;8.518;2024-02-14T04:28:16;7.68;;;4.00;;
20725;SDS011;10524;48.132;8.518;2024-02-14T04:30:42;9.57;;;4.13;;
20725;SDS011;10524;48.132;8.518;2024-02-14T04:33:08;7.00;;;3.90;;
20725;SDS011;10524;48.132;8.518;2024-02-14T04:35:34;6.93;;;3.80;;
20725;SDS011;10524;48.132;8.518;2024-02-14T04:38:00;8.68;;;3.83;;
20725;SDS011;10524;48.132;8.518;2024-02-14T04:40:26;6.45;;;3.72;;
20725;SDS011;10524;48.132;8.518;2024-02-14T04:42:51;10.05;;;3.83;;
20725;SDS011;10524;48.132;8.518;2024-02-14T04:45:17;10.68;;;4.07;;
20725;SDS011;10524;48.132;8.518;2024-02-14T04:47:43;6.18;;;4.20;;
20725;SDS011;10524;48.132;8.518;2024-02-14T04:50:09;8.30;;;4.25;;
20725;SDS011;10524;48.132;8.518;2024-02-14T04:52:35;6.93;;;4.35;;
20725;SDS011;10524;48.132;8.518;2024-02-14T04:55:01;8.80;;;4.50;;
20725;SDS011;10524;48.132;8.518;2024-02-14T04:57:28;9.50;;;4.35;;
20725;SDS011;10524;48.132;8.518;2024-02-14T04:59:54;8.10;;;4.28;;
20725;SDS011;10524;48.132;8.518;2024-02-14T05:02:20;6.72;;;4.00;;
20725;SDS011;10524;48.132;8.518;2024-02-14T05:04:46;7.63;;;3.80;;
20725;SDS011;10524;48.132;8.518;2024-02-14T05:07:11;5.35;;;3.80;;
20725;SDS011;10524;48.132;8.518;2024-02-14T05:09:37;7.78;;;4.07;;
20725;SDS011;10524;48.132;8.518;2024-02-14T05:12:03;6.53;;;3.90;;
20725;SDS011;10524;48.132;8.518;2024-02-14T05:14:29;8.23;;;4.30;;
20725;SDS011;10524;48.132;8.518;2024-02-14T05:16:56;6.47;;;3.88;;
20725;SDS011;10524;48.132;8.518;2024-02-14T05:19:22;8.20;;;4.45;;
20725;SDS011;10524;48.132;8.518;2024-02-14T05:21:47;7.75;;;3.85;;
20725;SDS011;10524;48.132;8.518;2024-02-14T05:24:13;8.30;;;3.85;;
20725;SDS011;10524;48.132;8.518;2024-02-14T05:26:39;5.13;;;3.33;;
20725;SDS011;10524;48.132;8.518;2024-02-14T05:29:05;5.88;;;3.67;;
20725;SDS011;10524;48.132;8.518;2024-02-14T05:31:42;7.05;;;3.50;;
20725;SDS011;10524;48.132;8.518;2024-02-14T05:34:09;7.88;;;3.40;;
20725;SDS011;10524;48.132;8.518;2024-02-14T05:36:35;5.28;;;3.75;;
20725;SDS011;10524;48.132;8.518;2024-02-14T05:39:01;7.43;;;3.88;;
20725;SDS011;10524;48.132;8.518;2024-02-14T05:41:28;5.93;;;3.60;;
20725;SDS011;10524;48.132;8.518;2024-02-14T05:43:53;7.32;;;3.45;;
20725;SDS011;10524;48.132;8.518;2024-02-14T05:46:19;9.60;;;3.70;;
20725;SDS011;10524;48.132;8.518;2024-02-14T05:48:46;8.38;;;4.03;;
20725;SDS011;10524;48.132;8.518;2024-02-14T05:51:13;8.75;;;4.70;;
20725;SDS011;10524;48.132;8.518;2024-02-14T05:53:39;8.07;;;4.70;;
20725;SDS011;10524;48.132;8.518;2024-02-14T05:56:05;7.85;;;4.80;;
20725;SDS011;10524;48.132;8.518;2024-02-14T05:58:31;7.45;;;4.68;;
20725;SDS011;10524;48.132;8.518;2024-02-14T06:00:57;8.20;;;4.57;;
20725;SDS011;10524;48.132;8.518;2024-02-14T06:03:22;9.93;;;3.92;;
20725;SDS011;10524;48.132;8.518;2024-02-14T06:05:48;6.45;;;3.80;;
20725;SDS011;10524;48.132;8.518;2024-02-14T06:08:14;5.60;;;2.90;;
20725;SDS011;10524;48.132;8.518;2024-02-14T06:10:39;8.73;;;3.50;;
20725;SDS011;10524;48.132;8.518;2024-02-14T06:13:05;9.90;;;4.55;;
20725;SDS011;10524;48.132;8.518;2024-02-14T06:15:31;6.47;;;3.60;;
20725;SDS011;10524;48.132;8.518;2024-02-14T06:17:56;6.72;;;2.88;;
20725;SDS011;10524;48.132;8.518;2024-02-14T06:20:22;7.10;;;3.90;;
20725;SDS011;10524;48.132;8.518;2024-02-14T06:22:48;4.22;;;2.97;;
20725;SDS011;10524;48.132;8.518;2024-02-14T06:25:14;6.00;;;3.55;;
20725;SDS011;10524;48.132;8.518;2024-02-14T06:27:41;6.63;;;3.75;;
20725;SDS011;10524;48.132;8.518;2024-02-14T06:30:07;7.38;;;3.78;;
20725;SDS011;10524;48.132;8.518;2024-02-14T06:32:33;5.10;;;2.95;;
20725;SDS011;10524;48.132;8.518;2024-02-14T06:34:59;6.60;;;2.88;;
20725;SDS011;10524;48.132;8.518;2024-02-14T06:37:25;4.47;;;2.60;;
20725;SDS011;10524;48.132;8.518;2024-02-14T06:39:50;4.55;;;2.50;;
20725;SDS011;10524;48.132;8.518;2024-02-14T06:42:17;4.80;;;2.22;;
20725;SDS011;10524;48.132;8.518;2024-02-14T06:44:42;5.13;;;2.30;;
20725;SDS011;10524;48.132;8.518;2024-02-14T06:47:08;6.43;;;2.70;;
20725;SDS011;10524;48.132;8.518;2024-02-14T06:49:34;5.53;;;2.45;;
20725;SDS011;10524;48.132;8.518;2024-02-14T06:52:00;4.95;;;2.75;;
20725;SDS011;10524;48.132;8.518;2024-02-14T06:54:26;5.07;;;2.67;;
20725;SDS011;10524;48.132;8.518;2024-02-14T06:56:51;7.00;;;2.50;;
20725;SDS011;10524;48.132;8.518;2024-02-14T06:59:17;4.53;;;2.15;;
20725;SDS011;10524;48.132;8.518;2024-02-14T07:01:43;3.15;;;2.10;;
20725;SDS011;10524;48.132;8.518;2024-02-14T07:04:09;5.20;;;2.45;;
20725;SDS011;10524;48.132;8.518;2024-02-14T07:06:35;5.70;;;2.50;;
20725;SDS011;10524;48.132;8.518;2024-02-14T07:09:01;6.10;;;2.42;;
20725;SDS011;10524;48.132;8.518;2024-02-14T07:11:27;5.25;;;2.63;;
20725;SDS011;10524;48.132;8.518;2024-02-14T07:13:52;4.07;;;2.25;;
20725;SDS011;10524;48.132;8.518;2024-02-14T07:16:18;5.18;;;2.63;;
20725;SDS011;10524;48.132;8.518;2024-02-14T07:18:44;7.60;;;2.70;;
20725;SDS011;10524;48.132;8.518;2024-02-14T07:21:10;4.25;;;2.53;;
20725;SDS011;10524;48.132;8.518;2024-02-14T07:23:36;8.75;;;3.60;;
20725;SDS011;10524;48.132;8.518;2024-02-14T07:26:01;4.97;;;3.25;;
20725;SDS011;10524;48.132;8.518;2024-02-14T07:28:27;6.00;;;3.35;;
20725;SDS011;10524;48.132;8.518;2024-02-14T07:30:53;5.95;;;3.10;;
20725;SDS011;10524;48.132;8.518;2024-02-14T07:33:18;8.15;;;5.10;;
20725;SDS011;10524;48.132;8.518;2024-02-14T07:35:44;6.22;;;4.18;;
20725;SDS011;10524;48.132;8.518;2024-02-14T07:38:12;10.73;;;5.93;;
20725;SDS011;10524;48.132;8.518;2024-02-14T07:40:38;4.75;;;2.80;;
20725;SDS011;10524;48.132;8.518;2024-02-14T07:43:04;9.85;;;5.78;;
20725;SDS011;10524;48.132;8.518;2024-02-14T07:45:32;10.10;;;6.47;;
20725;SDS011;10524;48.132;8.518;2024-02-14T07:47:58;5.70;;;3.38;;
20725;SDS011;10524;48.132;8.518;2024-02-14T07:50:23;7.95;;;3.40;;
20725;SDS011;10524;48.132;8.518;2024-02-14T07:52:49;7.72;;;3.38;;
20725;SDS011;10524;48.132;8.518;2024-02-14T07:55:15;4.47;;;2.60;;
20725;SDS011;10524;48.132;8.518;2024-02-14T07:57:41;5.90;;;2.20;;
20725;SDS011;10524;48.132;8.518;2024-02-14T08:00:07;4.25;;;2.30;;
20725;SDS011;10524;48.132;8.518;2024-02-14T08:02:35;4.00;;;2.17;;
20725;SDS011;10524;48.132;8.518;2024-02-14T08:05:01;3.50;;;2.00;;
20725;SDS011;10524;48.132;8.518;2024-02-14T08:07:27;3.83;;;2.00;;
20725;SDS011;10524;48.132;8.518;2024-02-14T08:09:54;3.20;;;2.00;;
20725;SDS011;10524;48.132;8.518;2024-02-14T08:12:20;4.82;;;2.35;;
20725;SDS011;10524;48.132;8.518;2024-02-14T08:14:47;3.60;;;2.25;;
20725;SDS011;10524;48.132;8.518;2024-02-14T08:17:12;4.25;;;2.30;;
20725;SDS011;10524;48.132;8.518;2024-02-14T08:19:38;4.32;;;2.08;;
20725;SDS011;10524;48.132;8.518;2024-02-14T08:22:04;5.93;;;2.40;;
20725;SDS011;10524;48.132;8.518;2024-02-14T08:24:31;3.78;;;2.30;;
20725;SDS011;10524;48.132;8.518;2024-02-14T08:26:56;4.63;;;2.22;;
20725;SDS011;10524;48.132;8.518;2024-02-14T08:29:22;5.38;;;2.58;;
20725;SDS011;10524;48.132;8.518;2024-02-14T08:31:48;3.35;;;2.45;;
20725;SDS011;10524;48.132;8.518;2024-02-14T08:34:14;4.38;;;2.50;;
20725;SDS011;10524;48.132;8.518;2024-02-14T08:36:41;4.32;;;2.00;;
20725;SDS011;10524;48.132;8.518;2024-02-14T08:39:07;3.30;;;2.25;;
20725;SDS011;10524;48.132;8.518;2024-02-14T08:41:35;4.97;;;2.50;;
20725;SDS011;10524;48.132;8.518;2024-02-14T08:44:02;4.22;;;2.30;;
20725;SDS011;10524;48.132;8.518;2024-02-14T08:46:29;5.57;;;2.72;;
20725;SDS011;10524;48.132;8.518;2024-02-14T08:48:54;4.72;;;2.75;;
20725;SDS011;10524;48.132;8.518;2024-02-14T08:51:20;5.82;;;2.60;;
20725;SDS011;10524;48.132;8.518;2024-02-14T08:53:46;5.65;;;2.90;;
20725;SDS011;10524;48.132;8.518;2024-02-14T08:56:12;4.25;;;2.45;;
20725;SDS011;10524;48.132;8.518;2024-02-14T08:58:38;3.88;;;2.10;;
20725;SDS011;10524;48.132;8.518;2024-02-14T09:01:03;3.15;;;1.70;;
20725;SDS011;10524;48.132;8.518;2024-02-14T09:03:30;3.00;;;1.75;;
20725;SDS011;10524;48.132;8.518;2024-02-14T09:05:57;2.35;;;1.70;;
20725;SDS011;10524;48.132;8.518;2024-02-14T09:08:23;2.15;;;1.70;;
20725;SDS011;10524;48.132;8.518;2024-02-14T09:10:52;3.47;;;1.95;;
20725;SDS011;10524;48.132;8.518;2024-02-14T09:13:18;3.38;;;1.73;;
20725;SDS011;10524;48.132;8.518;2024-02-14T09:15:43;2.45;;;1.60;;
20725;SDS011;10524;48.132;8.518;2024-02-14T09:18:09;3.97;;;1.30;;
20725;SDS011;10524;48.132;8.518;2024-02-14T09:20:35;4.07;;;1.42;;
20725;SDS011;10524;48.132;8.518;2024-02-14T09:23:02;4.03;;;1.60;;
20725;SDS011;10524;48.132;8.518;2024-02-14T09:25:28;2.50;;;1.70;;
20725;SDS011;10524;48.132;8.518;2024-02-14T09:27:54;3.58;;;1.70;;
20725;SDS011;10524;48.132;8.518;2024-02-14T09:30:20;2.17;;;1.40;;
20725;SDS011;10524;48.132;8.518;2024-02-14T09:32:45;2.50;;;1.40;;
20725;SDS011;10524;48.132;8.518;2024-02-14T09:35:12;2.03;;;1.05;;
20725;SDS011;10524;48.132;8.518;2024-02-14T09:37:38;1.10;;;0.95;;
20725;SDS011;10524;48.132;8.518;2024-02-14T09:40:05;1.80;;;1.20;;
20725;SDS011;10524;48.132;8.518;2024-02-14T09:42:43;1.10;;;0.70;;
20725;SDS011;10524;48.132;8.518;2024-02-14T09:45:12;1.65;;;0.90;;
20725;SDS011;10524;48.132;8.518;2024-02-14T09:47:40;8.82;;;1.30;;
20725;SDS011;10524;48.132;8.518;2024-02-14T09:50:07;3.20;;;0.80;;
20725;SDS011;10524;48.132;8.518;2024-02-14T09:52:35;1.40;;;0.90;;
20725;SDS011;10524;48.132;8.518;2024-02-14T09:55:03;43.58;;;4.72;;
20725;SDS011;10524;48.132;8.518;2024-02-14T09:57:30;16.77;;;2.17;;
20725;SDS011;10524;48.132;8.518;2024-02-14T09:59:57;14.13;;;1.83;;
20725;SDS011;10524;48.132;8.518;2024-02-14T10:02:25;16.20;;;2.33;;
20725;SDS011;10524;48.132;8.518;2024-02-14T10:04:51;7.43;;;1.35;;
20725;SDS011;10524;48.132;8.518;2024-02-14T10:07:16;6.45;;;1.10;;
20725;SDS011;10524;48.132;8.518;2024-02-14T10:09:43;13.75;;;1.65;;
20725;SDS011;10524;48.132;8.518;2024-02-14T10:12:09;1.38;;;0.70;;
20725;SDS011;10524;48.132;8.518;2024-02-14T10:14:35;1.38;;;0.80;;
20725;SDS011;10524;48.132;8.518;2024-02-14T10:17:05;2.80;;;0.70;;
20725;SDS011;10524;48.132;8.518;2024-02-14T10:19:33;1.80;;;0.93;;
20725;SDS011;10524;48.132;8.518;2024-02-14T10:21:59;2.20;;;0.68;;
20725;SDS011;10524;48.132;8.518;2024-02-14T10:24:28;0.70;;;0.55;;
20725;SDS011;10524;48.132;8.518;2024-02-14T10:26:56;1.00;;;0.60;;
20725;SDS011;10524;48.132;8.518;2024-02-14T10:29:24;1.08;;;0.60;;
20725;SDS011;10524;48.132;8.518;2024-02-14T10:31:50;0.98;;;0.70;;
20725;SDS011;10524;48.132;8.518;2024-02-14T10:34:18;1.10;;;0.60;;
20725;SDS011;10524;48.132;8.518;2024-02-14T10:36:45;0.98;;;0.57;;
20725;SDS011;10524;48.132;8.518;2024-02-14T10:39:12;2.08;;;0.70;;
20725;SDS011;10524;48.132;8.518;2024-02-14T10:41:40;1.25;;;0.60;;
20725;SDS011;10524;48.132;8.518;2024-02-14T10:44:06;1.80;;;0.70;;
20725;SDS011;10524;48.132;8.518;2024-02-14T10:46:33;1.08;;;0.63;;
20725;SDS011;10524;48.132;8.518;2024-02-14T10:49:04;3.45;;;1.13;;
20725;SDS011;10524;48.132;8.518;2024-02-14T10:51:32;1.52;;;0.80;;
20725;SDS011;10524;48.132;8.518;2024-02-14T10:54:03;1.58;;;0.80;;
20725;SDS011;10524;48.132;8.518;2024-02-14T10:56:34;1.45;;;0.60;;
20725;SDS011;10524;48.132;8.518;2024-02-14T10:59:03;1.48;;;0.70;;
20725;SDS011;10524;48.132;8.518;2024-02-14T11:01:31;1.02;;;0.60;;
20725;SDS011;10524;48.132;8.518;2024-02-14T11:03:59;2.08;;;1.30;;
20725;SDS011;10524;48.132;8.518;2024-02-14T11:06:26;1.13;;;0.70;;
20725;SDS011;10524;48.132;8.518;2024-02-14T11:09:01;1.67;;;1.20;;
20725;SDS011;10524;48.132;8.518;2024-02-14T11:11:35;0.60;;;0.52;;
20725;SDS011;10524;48.132;8.518;2024-02-14T11:14:02;1.10;;;0.60;;
20725;SDS011;10524;48.132;8.518;2024-02-14T11:16:30;1.50;;;0.40;;
20725;SDS011;10524;48.132;8.518;2024-02-14T11:19:07;0.77;;;0.63;;
20725;SDS011;10524;48.132;8.518;2024-02-14T11:21:36;1.20;;;0.90;;
20725;SDS011;10524;48.132;8.518;2024-02-14T11:24:09;1.25;;;1.10;;
20725;SDS011;10524;48.132;8.518;2024-02-14T11:26:46;0.75;;;0.70;;
20725;SDS011;10524;48.132;8.518;2024-02-14T11:29:19;1.00;;;0.90;;
20725;SDS011;10524;48.132;8.518;2024-02-14T11:31:46;1.83;;;1.27;;
20725;SDS011;10524;48.132;8.518;2024-02-14T11:34:15;1.63;;;0.80;;
20725;SDS011;10524;48.132;8.518;2024-02-14T11:36:41;2.15;;;0.82;;
20725;SDS011;10524;48.132;8.518;2024-02-14T11:39:07;0.93;;;0.40;;
20725;SDS011;10524;48.132;8.518;2024-02-14T11:41:33;1.10;;;0.98;;
20725;SDS011;10524;48.132;8.518;2024-02-14T11:44:03;0.77;;;0.50;;
20725;SDS011;10524;48.132;8.518;2024-02-14T11:46:33;1.67;;;0.70;;
20725;SDS011;10524;48.132;8.518;2024-02-14T11:49:00;0.70;;;0.70;;
20725;SDS011;10524;48.132;8.518;2024-02-14T11:51:28;1.65;;;0.50;;
20725;SDS011;10524;48.132;8.518;2024-02-14T11:53:55;0.50;;;0.45;;
20725;SDS011;10524;48.132;8.518;2024-02-14T11:56:29;0.50;;;0.45;;
20725;SDS011;10524;48.132;8.518;2024-02-14T11:59:06;0.63;;;0.52;;
20725;SDS011;10524;48.132;8.518;2024-02-14T12:01:35;0.60;;;0.40;;
20725;SDS011;10524;48.132;8.518;2024-02-14T12:04:03;0.80;;;0.60;;
20725;SDS011;10524;48.132;8.518;2024-02-14T12:06:30;1.10;;;0.40;;
20725;SDS011;10524;48.132;8.518;2024-02-14T12:09:00;0.40;;;0.38;;
20725;SDS011;10524;48.132;8.518;2024-02-14T12:11:37;0.98;;;0.40;;
20725;SDS011;10524;48.132;8.518;2024-02-14T12:14:07;0.93;;;0.50;;
20725;SDS011;10524;48.132;8.518;2024-02-14T12:16:35;1.60;;;0.50;;
20725;SDS011;10524;48.132;8.518;2024-02-14T12:19:05;0.65;;;0.43;;
20725;SDS011;10524;48.132;8.518;2024-02-14T12:21:33;4.78;;;2.63;;
20725;SDS011;10524;48.132;8.518;2024-02-14T12:24:00;1.92;;;1.40;;
20725;SDS011;10524;48.132;8.518;2024-02-14T12:26:26;1.52;;;1.20;;
20725;SDS011;10524;48.132;8.518;2024-02-14T12:28:52;2.50;;;1.80;;
20725;SDS011;10524;48.132;8.518;2024-02-14T12:31:22;1.13;;;0.80;;
20725;SDS011;10524;48.132;8.518;2024-02-14T12:33:48;0.93;;;0.75;;
20725;SDS011;10524;48.132;8.518;2024-02-14T12:36:14;3.15;;;2.42;;
20725;SDS011;10524;48.132;8.518;2024-02-14T12:38:40;1.30;;;1.05;;
20725;SDS011;10524;48.132;8.518;2024-02-14T12:41:06;2.33;;;0.68;;
20725;SDS011;10524;48.132;8.518;2024-02-14T12:43:31;0.40;;;0.40;;
20725;SDS011;10524;48.132;8.518;2024-02-14T12:45:57;1.15;;;0.60;;
20725;SDS011;10524;48.132;8.518;2024-02-14T12:48:23;1.25;;;0.60;;
20725;SDS011;10524;48.132;8.518;2024-02-14T12:50:53;0.55;;;0.50;;
20725;SDS011;10524;48.132;8.518;2024-02-14T12:53:19;0.93;;;0.70;;
20725;SDS011;10524;48.132;8.518;2024-02-14T12:55:46;0.93;;;0.70;;
20725;SDS011;10524;48.132;8.518;2024-02-14T12:58:12;0.60;;;0.60;;
20725;SDS011;10524;48.132;8.518;2024-02-14T13:00:39;0.88;;;0.60;;
20725;SDS011;10524;48.132;8.518;2024-02-14T13:03:05;0.70;;;0.50;;
20725;SDS011;10524;48.132;8.518;2024-02-14T13:05:31;0.60;;;0.40;;
20725;SDS011;10524;48.132;8.518;2024-02-14T13:07:57;0.80;;;0.60;;
20725;SDS011;10524;48.132;8.518;2024-02-14T13:10:22;1.25;;;0.68;;
20725;SDS011;10524;48.132;8.518;2024-02-14T13:12:48;1.42;;;0.60;;
20725;SDS011;10524;48.132;8.518;2024-02-14T13:15:16;0.63;;;0.57;;
20725;SDS011;10524;48.132;8.518;2024-02-14T13:17:41;0.70;;;0.70;;
20725;SDS011;10524;48.132;8.518;2024-02-14T13:20:07;0.85;;;0.70;;
20725;SDS011;10524;48.132;8.518;2024-02-14T13:22:33;0.55;;;0.55;;
20725;SDS011;10524;48.132;8.518;2024-02-14T13:24:59;0.52;;;0.40;;
20725;SDS011;10524;48.132;8.518;2024-02-14T13:27:30;0.85;;;0.50;;
20725;SDS011;10524;48.132;8.518;2024-02-14T13:29:55;0.40;;;0.40;;
20725;SDS011;10524;48.132;8.518;2024-02-14T13:32:21;0.38;;;0.35;;
20725;SDS011;10524;48.132;8.518;2024-02-14T13:34:47;0.50;;;0.40;;
20725;SDS011;10524;48.132;8.518;2024-02-14T13:37:13;0.32;;;0.30;;
20725;SDS011;10524;48.132;8.518;2024-02-14T13:39:40;2.15;;;0.50;;
20725;SDS011;10524;48.132;8.518;2024-02-14T13:42:06;1.00;;;0.50;;
20725;SDS011;10524;48.132;8.518;2024-02-14T13:44:33;0.68;;;0.40;;
20725;SDS011;10524;48.132;8.518;2024-02-14T13:46:59;0.40;;;0.40;;
20725;SDS011;10524;48.132;8.518;2024-02-14T13:49:24;0.38;;;0.38;;
20725;SDS011;10524;48.132;8.518;2024-02-14T13:51:51;0.60;;;0.40;;
20725;SDS011;10524;48.132;8.518;2024-02-14T13:54:18;1.17;;;0.50;;
20725;SDS011;10524;48.132;8.518;2024-02-14T13:56:44;0.68;;;0.40;;
20725;SDS011;10524;48.132;8.518;2024-02-14T13:59:10;0.30;;;0.30;;
20725;SDS011;10524;48.132;8.518;2024-02-14T14:01:36;1.38;;;0.40;;
20725;SDS011;10524;48.132;8.518;2024-02-14T14:04:02;0.55;;;0.40;;
20725;SDS011;10524;48.132;8.518;2024-02-14T14:06:29;0.65;;;0.30;;
20725;SDS011;10524;48.132;8.518;2024-02-14T14:08:55;0.40;;;0.30;;
20725;SDS011;10524;48.132;8.518;2024-02-14T14:11:21;0.47;;;0.30;;
20725;SDS011;10524;48.132;8.518;2024-02-14T14:13:47;0.60;;;0.40;;
20725;SDS011;10524;48.132;8.518;2024-02-14T14:16:13;0.40;;;0.40;;
20725;SDS011;10524;48.132;8.518;2024-02-14T14:18:40;1.83;;;0.30;;
20725;SDS011;10524;48.132;8.518;2024-02-14T14:21:05;0.38;;;0.30;;
20725;SDS011;10524;48.132;8.518;2024-02-14T14:23:32;0.22;;;0.22;;
20725;SDS011;10524;48.132;8.518;2024-02-14T14:26:00;0.20;;;0.20;;
20725;SDS011;10524;48.132;8.518;2024-02-14T14:28:26;0.63;;;0.30;;
20725;SDS011;10524;48.132;8.518;2024-02-14T14:30:52;0.73;;;0.25;;
20725;SDS011;10524;48.132;8.518;2024-02-14T14:33:21;0.30;;;0.30;;
20725;SDS011;10524;48.132;8.518;2024-02-14T14:35:47;0.43;;;0.20;;
20725;SDS011;10524;48.132;8.518;2024-02-14T14:38:19;0.25;;;0.22;;
20725;SDS011;10524;48.132;8.518;2024-02-14T14:40:45;0.25;;;0.25;;
20725;SDS011;10524;48.132;8.518;2024-02-14T14:43:12;0.60;;;0.30;;
20725;SDS011;10524;48.132;8.518;2024-02-14T14:45:38;0.68;;;0.20;;